sensor_id;sensor_type;location;lat;lon;timestamp;P1;durP1;ratioP1;P2;durP2;ratioP2
37943;SDS011;23767;42.024;23.086;2022-07-31T00:00:31;7.75;;;4.53;;
37943;SDS011;23767;42.024;23.086;2022-07-31T00:02:57;7.82;;;4.70;;
37943;SDS011;23767;42.024;23.086;2022-07-31T00:05:23;6.53;;;4.82;;
37943;SDS011;23767;42.024;23.086;2022-07-31T00:07:50;6.05;;;4.68;;
37943;SDS011;23767;42.024;23.086;2022-07-31T00:10:16;8.90;;;4.80;;
37943;SDS011;23767;42.024;23.086;2022-07-31T00:12:42;5.30;;;4.55;;
37943;SDS011;23767;42.024;23.086;2022-07-31T00:15:08;7.82;;;4.95;;
37943;SDS011;23767;42.024;23.086;2022-07-31T00:17:36;7.88;;;4.60;;
37943;SDS011;23767;42.024;23.086;2022-07-31T00:20:02;6.07;;;4.22;;
37943;SDS011;23767;42.024;23.086;2022-07-31T00:22:29;6.38;;;4.60;;
37943;SDS011;23767;42.024;23.086;2022-07-31T00:24:55;7.07;;;4.25;;
37943;SDS011;23767;42.024;23.086;2022-07-31T00:27:21;10.13;;;4.90;;
37943;SDS011;23767;42.024;23.086;2022-07-31T00:29:48;6.50;;;4.55;;
37943;SDS011;23767;42.024;23.086;2022-07-31T00:32:14;7.13;;;4.25;;
37943;SDS011;23767;42.024;23.086;2022-07-31T00:34:40;7.45;;;4.43;;
37943;SDS011;23767;42.024;23.086;2022-07-31T00:37:06;7.57;;;4.78;;
37943;SDS011;23767;42.024;23.086;2022-07-31T00:39:32;7.43;;;4.82;;
37943;SDS011;23767;42.024;23.086;2022-07-31T00:41:59;7.13;;;4.95;;
37943;SDS011;23767;42.024;23.086;2022-07-31T00:44:25;8.30;;;5.13;;
37943;SDS011;23767;42.024;23.086;2022-07-31T00:46:51;7.55;;;4.35;;
37943;SDS011;23767;42.024;23.086;2022-07-31T00:49:17;8.95;;;4.88;;
37943;SDS011;23767;42.024;23.086;2022-07-31T00:51:43;5.95;;;4.50;;
37943;SDS011;23767;42.024;23.086;2022-07-31T00:54:09;6.47;;;4.45;;
37943;SDS011;23767;42.024;23.086;2022-07-31T00:56:35;8.73;;;4.38;;
37943;SDS011;23767;42.024;23.086;2022-07-31T00:59:02;7.07;;;4.15;;
37943;SDS011;23767;42.024;23.086;2022-07-31T01:01:28;7.53;;;4.43;;
37943;SDS011;23767;42.024;23.086;2022-07-31T01:03:54;8.63;;;4.60;;
37943;SDS011;23767;42.024;23.086;2022-07-31T01:06:20;9.18;;;4.78;;
37943;SDS011;23767;42.024;23.086;2022-07-31T01:08:47;10.02;;;4.63;;
37943;SDS011;23767;42.024;23.086;2022-07-31T01:11:18;6.63;;;4.20;;
37943;SDS011;23767;42.024;23.086;2022-07-31T01:13:57;7.30;;;3.92;;
37943;SDS011;23767;42.024;23.086;2022-07-31T01:16:25;5.30;;;3.70;;
37943;SDS011;23767;42.024;23.086;2022-07-31T01:18:53;5.68;;;3.63;;
37943;SDS011;23767;42.024;23.086;2022-07-31T01:21:42;6.10;;;3.95;;
37943;SDS011;23767;42.024;23.086;2022-07-31T01:26:49;4.82;;;3.28;;
37943;SDS011;23767;42.024;23.086;2022-07-31T01:32:26;7.43;;;4.13;;
37943;SDS011;23767;42.024;23.086;2022-07-31T01:34:48;6.97;;;4.10;;
37943;SDS011;23767;42.024;23.086;2022-07-31T01:37:26;8.63;;;4.18;;
37943;SDS011;23767;42.024;23.086;2022-07-31T01:40:03;9.55;;;4.22;;
37943;SDS011;23767;42.024;23.086;2022-07-31T01:42:30;5.97;;;4.05;;
37943;SDS011;23767;42.024;23.086;2022-07-31T01:44:57;7.47;;;4.38;;
37943;SDS011;23767;42.024;23.086;2022-07-31T01:47:24;7.95;;;4.95;;
37943;SDS011;23767;42.024;23.086;2022-07-31T01:49:52;5.85;;;4.43;;
37943;SDS011;23767;42.024;23.086;2022-07-31T01:52:19;7.65;;;5.13;;
37943;SDS011;23767;42.024;23.086;2022-07-31T01:54:46;7.38;;;4.88;;
37943;SDS011;23767;42.024;23.086;2022-07-31T01:57:12;7.82;;;4.60;;
37943;SDS011;23767;42.024;23.086;2022-07-31T01:59:39;6.80;;;4.82;;
37943;SDS011;23767;42.024;23.086;2022-07-31T02:02:06;6.15;;;4.22;;
37943;SDS011;23767;42.024;23.086;2022-07-31T02:04:32;6.90;;;4.53;;
37943;SDS011;23767;42.024;23.086;2022-07-31T02:07:00;6.05;;;5.13;;
37943;SDS011;23767;42.024;23.086;2022-07-31T02:09:30;7.70;;;4.53;;
37943;SDS011;23767;42.024;23.086;2022-07-31T02:11:57;7.35;;;4.00;;
37943;SDS011;23767;42.024;23.086;2022-07-31T02:14:24;5.22;;;3.83;;
37943;SDS011;23767;42.024;23.086;2022-07-31T02:16:51;7.18;;;4.43;;
37943;SDS011;23767;42.024;23.086;2022-07-31T02:19:18;6.30;;;4.00;;
37943;SDS011;23767;42.024;23.086;2022-07-31T02:21:44;7.30;;;4.68;;
37943;SDS011;23767;42.024;23.086;2022-07-31T02:24:10;12.30;;;5.32;;
37943;SDS011;23767;42.024;23.086;2022-07-31T02:26:36;7.93;;;5.80;;
37943;SDS011;23767;42.024;23.086;2022-07-31T02:29:03;8.00;;;5.95;;
37943;SDS011;23767;42.024;23.086;2022-07-31T02:31:31;8.60;;;5.88;;
37943;SDS011;23767;42.024;23.086;2022-07-31T02:33:59;7.07;;;5.10;;
37943;SDS011;23767;42.024;23.086;2022-07-31T02:36:25;10.35;;;4.80;;
37943;SDS011;23767;42.024;23.086;2022-07-31T02:38:51;7.38;;;4.57;;
37943;SDS011;23767;42.024;23.086;2022-07-31T02:41:19;8.68;;;5.05;;
37943;SDS011;23767;42.024;23.086;2022-07-31T02:43:46;8.23;;;5.63;;
37943;SDS011;23767;42.024;23.086;2022-07-31T02:46:13;11.07;;;5.50;;
37943;SDS011;23767;42.024;23.086;2022-07-31T02:48:40;11.73;;;5.45;;
37943;SDS011;23767;42.024;23.086;2022-07-31T02:51:06;10.30;;;6.20;;
37943;SDS011;23767;42.024;23.086;2022-07-31T02:53:33;10.07;;;6.10;;
37943;SDS011;23767;42.024;23.086;2022-07-31T02:56:01;9.38;;;6.88;;
37943;SDS011;23767;42.024;23.086;2022-07-31T02:58:28;11.23;;;6.38;;
37943;SDS011;23767;42.024;23.086;2022-07-31T03:01:01;8.32;;;6.35;;
37943;SDS011;23767;42.024;23.086;2022-07-31T03:03:27;9.38;;;7.55;;
37943;SDS011;23767;42.024;23.086;2022-07-31T03:05:53;11.52;;;8.60;;
37943;SDS011;23767;42.024;23.086;2022-07-31T03:08:19;7.28;;;5.82;;
37943;SDS011;23767;42.024;23.086;2022-07-31T03:10:46;8.02;;;6.30;;
37943;SDS011;23767;42.024;23.086;2022-07-31T03:13:12;9.05;;;6.35;;
37943;SDS011;23767;42.024;23.086;2022-07-31T03:15:39;8.00;;;6.10;;
37943;SDS011;23767;42.024;23.086;2022-07-31T03:18:05;9.20;;;6.68;;
37943;SDS011;23767;42.024;23.086;2022-07-31T03:20:35;11.38;;;7.55;;
37943;SDS011;23767;42.024;23.086;2022-07-31T03:23:02;12.15;;;10.93;;
37943;SDS011;23767;42.024;23.086;2022-07-31T03:25:28;13.45;;;11.88;;
37943;SDS011;23767;42.024;23.086;2022-07-31T03:27:54;14.10;;;11.48;;
37943;SDS011;23767;42.024;23.086;2022-07-31T03:30:20;11.52;;;7.28;;
37943;SDS011;23767;42.024;23.086;2022-07-31T03:32:52;9.27;;;5.95;;
37943;SDS011;23767;42.024;23.086;2022-07-31T03:35:19;9.30;;;6.50;;
37943;SDS011;23767;42.024;23.086;2022-07-31T03:37:45;8.80;;;6.10;;
37943;SDS011;23767;42.024;23.086;2022-07-31T03:40:11;10.88;;;6.78;;
37943;SDS011;23767;42.024;23.086;2022-07-31T03:42:37;10.20;;;8.55;;
37943;SDS011;23767;42.024;23.086;2022-07-31T03:45:04;15.82;;;8.23;;
37943;SDS011;23767;42.024;23.086;2022-07-31T03:47:31;11.50;;;9.80;;
37943;SDS011;23767;42.024;23.086;2022-07-31T03:49:58;13.85;;;8.85;;
37943;SDS011;23767;42.024;23.086;2022-07-31T03:52:25;11.32;;;9.18;;
37943;SDS011;23767;42.024;23.086;2022-07-31T03:54:52;8.30;;;6.95;;
37943;SDS011;23767;42.024;23.086;2022-07-31T03:57:19;9.70;;;5.60;;
37943;SDS011;23767;42.024;23.086;2022-07-31T03:59:46;6.70;;;4.97;;
37943;SDS011;23767;42.024;23.086;2022-07-31T04:02:13;6.78;;;4.32;;
37943;SDS011;23767;42.024;23.086;2022-07-31T04:04:39;7.88;;;4.35;;
37943;SDS011;23767;42.024;23.086;2022-07-31T04:07:05;8.82;;;4.72;;
37943;SDS011;23767;42.024;23.086;2022-07-31T04:09:31;6.47;;;4.07;;
37943;SDS011;23767;42.024;23.086;2022-07-31T04:11:57;8.07;;;4.60;;
37943;SDS011;23767;42.024;23.086;2022-07-31T04:14:23;9.05;;;5.80;;
37943;SDS011;23767;42.024;23.086;2022-07-31T04:16:49;6.90;;;4.60;;
37943;SDS011;23767;42.024;23.086;2022-07-31T04:19:15;7.53;;;4.25;;
37943;SDS011;23767;42.024;23.086;2022-07-31T04:21:42;8.13;;;4.55;;
37943;SDS011;23767;42.024;23.086;2022-07-31T04:24:08;10.23;;;4.28;;
37943;SDS011;23767;42.024;23.086;2022-07-31T04:26:35;6.65;;;4.47;;
37943;SDS011;23767;42.024;23.086;2022-07-31T04:29:01;5.82;;;4.35;;
37943;SDS011;23767;42.024;23.086;2022-07-31T04:31:28;8.48;;;4.63;;
37943;SDS011;23767;42.024;23.086;2022-07-31T04:33:54;9.85;;;5.30;;
37943;SDS011;23767;42.024;23.086;2022-07-31T04:36:20;8.85;;;5.38;;
37943;SDS011;23767;42.024;23.086;2022-07-31T04:38:46;8.70;;;5.80;;
37943;SDS011;23767;42.024;23.086;2022-07-31T04:41:12;7.40;;;5.53;;
37943;SDS011;23767;42.024;23.086;2022-07-31T04:43:38;8.85;;;5.90;;
37943;SDS011;23767;42.024;23.086;2022-07-31T04:46:04;8.18;;;5.40;;
37943;SDS011;23767;42.024;23.086;2022-07-31T04:48:30;9.05;;;5.10;;
37943;SDS011;23767;42.024;23.086;2022-07-31T04:50:56;10.73;;;5.35;;
37943;SDS011;23767;42.024;23.086;2022-07-31T04:53:22;8.05;;;6.07;;
37943;SDS011;23767;42.024;23.086;2022-07-31T04:55:49;9.98;;;6.05;;
37943;SDS011;23767;42.024;23.086;2022-07-31T04:58:38;9.15;;;5.55;;
37943;SDS011;23767;42.024;23.086;2022-07-31T05:01:04;12.70;;;6.97;;
37943;SDS011;23767;42.024;23.086;2022-07-31T05:03:30;8.20;;;6.10;;
37943;SDS011;23767;42.024;23.086;2022-07-31T05:05:56;9.48;;;6.00;;
37943;SDS011;23767;42.024;23.086;2022-07-31T05:08:22;10.90;;;6.57;;
37943;SDS011;23767;42.024;23.086;2022-07-31T05:10:48;10.68;;;7.15;;
37943;SDS011;23767;42.024;23.086;2022-07-31T05:13:33;12.18;;;7.55;;
37943;SDS011;23767;42.024;23.086;2022-07-31T05:15:59;12.68;;;7.85;;
37943;SDS011;23767;42.024;23.086;2022-07-31T05:18:25;10.23;;;7.65;;
37943;SDS011;23767;42.024;23.086;2022-07-31T05:20:51;11.00;;;8.13;;
37943;SDS011;23767;42.024;23.086;2022-07-31T05:23:18;9.90;;;7.78;;
37943;SDS011;23767;42.024;23.086;2022-07-31T05:25:44;10.57;;;7.72;;
37943;SDS011;23767;42.024;23.086;2022-07-31T05:28:10;11.88;;;7.75;;
37943;SDS011;23767;42.024;23.086;2022-07-31T05:30:36;11.40;;;8.60;;
37943;SDS011;23767;42.024;23.086;2022-07-31T05:33:02;12.38;;;8.68;;
37943;SDS011;23767;42.024;23.086;2022-07-31T05:35:29;10.25;;;8.60;;
37943;SDS011;23767;42.024;23.086;2022-07-31T05:37:55;12.02;;;8.50;;
37943;SDS011;23767;42.024;23.086;2022-07-31T05:40:21;10.35;;;7.95;;
37943;SDS011;23767;42.024;23.086;2022-07-31T05:42:47;11.15;;;8.48;;
37943;SDS011;23767;42.024;23.086;2022-07-31T05:45:13;14.18;;;9.25;;
37943;SDS011;23767;42.024;23.086;2022-07-31T05:47:39;12.40;;;8.50;;
37943;SDS011;23767;42.024;23.086;2022-07-31T05:50:05;10.48;;;8.50;;
37943;SDS011;23767;42.024;23.086;2022-07-31T05:52:32;11.85;;;9.38;;
37943;SDS011;23767;42.024;23.086;2022-07-31T05:54:58;12.00;;;9.77;;
37943;SDS011;23767;42.024;23.086;2022-07-31T05:57:24;13.55;;;9.30;;
37943;SDS011;23767;42.024;23.086;2022-07-31T05:59:50;12.48;;;8.52;;
37943;SDS011;23767;42.024;23.086;2022-07-31T06:02:16;13.88;;;10.15;;
37943;SDS011;23767;42.024;23.086;2022-07-31T06:04:42;12.57;;;9.52;;
37943;SDS011;23767;42.024;23.086;2022-07-31T06:07:08;20.55;;;11.40;;
37943;SDS011;23767;42.024;23.086;2022-07-31T06:09:34;14.80;;;11.23;;
37943;SDS011;23767;42.024;23.086;2022-07-31T06:12:00;12.75;;;10.88;;
37943;SDS011;23767;42.024;23.086;2022-07-31T06:14:26;17.98;;;11.50;;
37943;SDS011;23767;42.024;23.086;2022-07-31T06:16:52;13.18;;;10.70;;
37943;SDS011;23767;42.024;23.086;2022-07-31T06:19:18;14.32;;;10.55;;
37943;SDS011;23767;42.024;23.086;2022-07-31T06:21:45;15.48;;;10.38;;
37943;SDS011;23767;42.024;23.086;2022-07-31T06:24:11;18.50;;;12.68;;
37943;SDS011;23767;42.024;23.086;2022-07-31T06:26:37;17.58;;;10.93;;
37943;SDS011;23767;42.024;23.086;2022-07-31T06:29:03;13.73;;;11.60;;
37943;SDS011;23767;42.024;23.086;2022-07-31T06:31:29;15.98;;;11.98;;
37943;SDS011;23767;42.024;23.086;2022-07-31T06:33:55;15.68;;;13.38;;
37943;SDS011;23767;42.024;23.086;2022-07-31T06:36:21;16.23;;;14.55;;
37943;SDS011;23767;42.024;23.086;2022-07-31T06:38:48;16.80;;;14.35;;
37943;SDS011;23767;42.024;23.086;2022-07-31T06:41:14;18.58;;;12.65;;
37943;SDS011;23767;42.024;23.086;2022-07-31T06:44:00;15.77;;;13.07;;
37943;SDS011;23767;42.024;23.086;2022-07-31T06:46:26;15.73;;;13.32;;
37943;SDS011;23767;42.024;23.086;2022-07-31T06:48:52;17.95;;;13.00;;
37943;SDS011;23767;42.024;23.086;2022-07-31T06:51:18;16.23;;;13.00;;
37943;SDS011;23767;42.024;23.086;2022-07-31T06:53:45;21.90;;;14.18;;
37943;SDS011;23767;42.024;23.086;2022-07-31T06:56:11;16.80;;;12.90;;
37943;SDS011;23767;42.024;23.086;2022-07-31T06:58:37;19.27;;;13.45;;
37943;SDS011;23767;42.024;23.086;2022-07-31T07:01:03;19.23;;;13.23;;
37943;SDS011;23767;42.024;23.086;2022-07-31T07:03:29;18.10;;;13.40;;
37943;SDS011;23767;42.024;23.086;2022-07-31T07:05:55;15.70;;;12.57;;
37943;SDS011;23767;42.024;23.086;2022-07-31T07:08:22;18.60;;;13.93;;
37943;SDS011;23767;42.024;23.086;2022-07-31T07:10:49;13.85;;;12.38;;
37943;SDS011;23767;42.024;23.086;2022-07-31T07:13:15;15.65;;;12.82;;
37943;SDS011;23767;42.024;23.086;2022-07-31T07:15:41;18.13;;;13.32;;
37943;SDS011;23767;42.024;23.086;2022-07-31T07:18:07;17.75;;;12.57;;
37943;SDS011;23767;42.024;23.086;2022-07-31T07:20:33;16.80;;;13.88;;
37943;SDS011;23767;42.024;23.086;2022-07-31T07:22:59;18.05;;;14.38;;
37943;SDS011;23767;42.024;23.086;2022-07-31T07:25:25;18.95;;;14.95;;
37943;SDS011;23767;42.024;23.086;2022-07-31T07:27:51;16.83;;;14.30;;
37943;SDS011;23767;42.024;23.086;2022-07-31T07:30:18;18.80;;;14.00;;
37943;SDS011;23767;42.024;23.086;2022-07-31T07:32:43;17.85;;;13.20;;
37943;SDS011;23767;42.024;23.086;2022-07-31T07:35:10;17.98;;;14.43;;
37943;SDS011;23767;42.024;23.086;2022-07-31T07:37:39;19.38;;;14.82;;
37943;SDS011;23767;42.024;23.086;2022-07-31T07:40:06;17.77;;;14.18;;
37943;SDS011;23767;42.024;23.086;2022-07-31T07:42:33;16.98;;;13.93;;
37943;SDS011;23767;42.024;23.086;2022-07-31T07:44:59;18.67;;;14.95;;
37943;SDS011;23767;42.024;23.086;2022-07-31T07:47:26;20.00;;;14.98;;
37943;SDS011;23767;42.024;23.086;2022-07-31T07:49:52;23.02;;;15.43;;
37943;SDS011;23767;42.024;23.086;2022-07-31T07:52:18;19.20;;;16.27;;
37943;SDS011;23767;42.024;23.086;2022-07-31T07:54:44;21.13;;;15.13;;
37943;SDS011;23767;42.024;23.086;2022-07-31T07:57:14;19.08;;;15.98;;
37943;SDS011;23767;42.024;23.086;2022-07-31T07:59:40;22.08;;;16.38;;
37943;SDS011;23767;42.024;23.086;2022-07-31T08:02:06;21.08;;;15.25;;
37943;SDS011;23767;42.024;23.086;2022-07-31T08:04:34;18.45;;;16.13;;
37943;SDS011;23767;42.024;23.086;2022-07-31T08:07:00;17.52;;;15.65;;
37943;SDS011;23767;42.024;23.086;2022-07-31T08:09:28;19.70;;;16.17;;
37943;SDS011;23767;42.024;23.086;2022-07-31T08:11:54;19.55;;;14.68;;
37943;SDS011;23767;42.024;23.086;2022-07-31T08:14:20;18.40;;;14.85;;
37943;SDS011;23767;42.024;23.086;2022-07-31T08:16:46;17.25;;;12.13;;
37943;SDS011;23767;42.024;23.086;2022-07-31T08:19:12;24.27;;;14.68;;
37943;SDS011;23767;42.024;23.086;2022-07-31T08:21:38;18.10;;;12.82;;
37943;SDS011;23767;42.024;23.086;2022-07-31T08:24:05;15.10;;;11.80;;
37943;SDS011;23767;42.024;23.086;2022-07-31T08:26:31;15.73;;;11.32;;
37943;SDS011;23767;42.024;23.086;2022-07-31T08:29:16;20.13;;;11.77;;
37943;SDS011;23767;42.024;23.086;2022-07-31T08:31:42;15.45;;;11.95;;
37943;SDS011;23767;42.024;23.086;2022-07-31T08:34:11;16.60;;;11.93;;
37943;SDS011;23767;42.024;23.086;2022-07-31T08:36:37;13.25;;;9.85;;
37943;SDS011;23767;42.024;23.086;2022-07-31T08:39:03;12.07;;;10.88;;
37943;SDS011;23767;42.024;23.086;2022-07-31T08:41:29;16.17;;;11.52;;
37943;SDS011;23767;42.024;23.086;2022-07-31T08:44:03;16.83;;;11.90;;
37943;SDS011;23767;42.024;23.086;2022-07-31T08:46:31;13.40;;;12.00;;
37943;SDS011;23767;42.024;23.086;2022-07-31T08:48:57;15.00;;;13.07;;
37943;SDS011;23767;42.024;23.086;2022-07-31T08:51:25;17.23;;;12.80;;
37943;SDS011;23767;42.024;23.086;2022-07-31T08:53:52;14.43;;;11.85;;
37943;SDS011;23767;42.024;23.086;2022-07-31T08:56:18;14.48;;;11.98;;
37943;SDS011;23767;42.024;23.086;2022-07-31T08:58:44;16.67;;;12.73;;
37943;SDS011;23767;42.024;23.086;2022-07-31T09:01:11;12.85;;;11.50;;
37943;SDS011;23767;42.024;23.086;2022-07-31T09:03:37;13.18;;;11.77;;
37943;SDS011;23767;42.024;23.086;2022-07-31T09:06:04;14.88;;;13.38;;
37943;SDS011;23767;42.024;23.086;2022-07-31T09:08:31;12.63;;;11.43;;
37943;SDS011;23767;42.024;23.086;2022-07-31T09:11:04;14.18;;;12.77;;
37943;SDS011;23767;42.024;23.086;2022-07-31T09:13:31;15.07;;;13.63;;
37943;SDS011;23767;42.024;23.086;2022-07-31T09:15:58;14.40;;;12.88;;
37943;SDS011;23767;42.024;23.086;2022-07-31T09:18:25;14.40;;;13.00;;
37943;SDS011;23767;42.024;23.086;2022-07-31T09:20:55;14.13;;;12.63;;
37943;SDS011;23767;42.024;23.086;2022-07-31T09:23:21;15.15;;;13.65;;
37943;SDS011;23767;42.024;23.086;2022-07-31T09:25:54;15.18;;;13.60;;
37943;SDS011;23767;42.024;23.086;2022-07-31T09:28:30;14.70;;;13.20;;
37943;SDS011;23767;42.024;23.086;2022-07-31T09:30:57;14.23;;;12.80;;
37943;SDS011;23767;42.024;23.086;2022-07-31T09:33:25;13.63;;;12.32;;
37943;SDS011;23767;42.024;23.086;2022-07-31T09:35:52;13.60;;;12.15;;
37943;SDS011;23767;42.024;23.086;2022-07-31T09:38:18;13.95;;;12.55;;
37943;SDS011;23767;42.024;23.086;2022-07-31T09:40:45;12.57;;;11.43;;
37943;SDS011;23767;42.024;23.086;2022-07-31T09:43:15;13.25;;;11.95;;
37943;SDS011;23767;42.024;23.086;2022-07-31T09:45:44;14.25;;;12.90;;
37943;SDS011;23767;42.024;23.086;2022-07-31T09:48:11;13.30;;;11.90;;
37943;SDS011;23767;42.024;23.086;2022-07-31T09:50:38;13.02;;;11.82;;
37943;SDS011;23767;42.024;23.086;2022-07-31T09:53:04;12.13;;;10.85;;
37943;SDS011;23767;42.024;23.086;2022-07-31T09:55:30;12.27;;;11.07;;
37943;SDS011;23767;42.024;23.086;2022-07-31T09:57:58;14.57;;;12.27;;
37943;SDS011;23767;42.024;23.086;2022-07-31T10:00:24;11.88;;;10.77;;
37943;SDS011;23767;42.024;23.086;2022-07-31T10:02:54;12.07;;;10.88;;
37943;SDS011;23767;42.024;23.086;2022-07-31T10:05:24;11.82;;;10.30;;
37943;SDS011;23767;42.024;23.086;2022-07-31T10:07:51;13.38;;;10.55;;
37943;SDS011;23767;42.024;23.086;2022-07-31T10:10:18;11.48;;;10.27;;
37943;SDS011;23767;42.024;23.086;2022-07-31T10:12:47;11.18;;;9.82;;
37943;SDS011;23767;42.024;23.086;2022-07-31T10:15:15;12.32;;;11.13;;
37943;SDS011;23767;42.024;23.086;2022-07-31T10:17:43;10.98;;;9.88;;
37943;SDS011;23767;42.024;23.086;2022-07-31T10:20:12;11.18;;;9.77;;
37943;SDS011;23767;42.024;23.086;2022-07-31T10:22:41;10.65;;;9.55;;
37943;SDS011;23767;42.024;23.086;2022-07-31T10:25:08;10.80;;;9.50;;
37943;SDS011;23767;42.024;23.086;2022-07-31T10:27:37;11.48;;;9.60;;
37943;SDS011;23767;42.024;23.086;2022-07-31T10:30:05;9.80;;;8.80;;
37943;SDS011;23767;42.024;23.086;2022-07-31T10:32:31;9.38;;;8.48;;
37943;SDS011;23767;42.024;23.086;2022-07-31T10:34:57;9.52;;;8.63;;
37943;SDS011;23767;42.024;23.086;2022-07-31T10:37:29;9.38;;;8.48;;
37943;SDS011;23767;42.024;23.086;2022-07-31T10:40:00;10.23;;;8.73;;
37943;SDS011;23767;42.024;23.086;2022-07-31T10:42:45;9.68;;;8.68;;
37943;SDS011;23767;42.024;23.086;2022-07-31T10:45:13;9.80;;;8.73;;
37943;SDS011;23767;42.024;23.086;2022-07-31T10:47:51;9.48;;;8.50;;
37943;SDS011;23767;42.024;23.086;2022-07-31T10:50:22;9.60;;;8.60;;
37943;SDS011;23767;42.024;23.086;2022-07-31T10:52:48;9.27;;;8.27;;
37943;SDS011;23767;42.024;23.086;2022-07-31T10:55:18;9.45;;;8.40;;
37943;SDS011;23767;42.024;23.086;2022-07-31T10:57:49;10.30;;;9.23;;
37943;SDS011;23767;42.024;23.086;2022-07-31T11:00:16;10.43;;;9.15;;
37943;SDS011;23767;42.024;23.086;2022-07-31T11:02:42;10.30;;;8.63;;
37943;SDS011;23767;42.024;23.086;2022-07-31T11:07:44;9.68;;;8.68;;
37943;SDS011;23767;42.024;23.086;2022-07-31T11:10:17;9.50;;;8.38;;
37943;SDS011;23767;42.024;23.086;2022-07-31T11:12:44;10.70;;;8.82;;
37943;SDS011;23767;42.024;23.086;2022-07-31T11:15:17;9.13;;;8.00;;
37943;SDS011;23767;42.024;23.086;2022-07-31T11:17:44;9.02;;;8.13;;
37943;SDS011;23767;42.024;23.086;2022-07-31T11:20:20;9.23;;;7.90;;
37943;SDS011;23767;42.024;23.086;2022-07-31T11:22:59;9.70;;;8.70;;
37943;SDS011;23767;42.024;23.086;2022-07-31T11:25:26;8.90;;;7.95;;
37943;SDS011;23767;42.024;23.086;2022-07-31T11:27:57;10.52;;;8.88;;
37943;SDS011;23767;42.024;23.086;2022-07-31T11:30:23;9.85;;;8.02;;
37943;SDS011;23767;42.024;23.086;2022-07-31T11:32:50;10.30;;;9.30;;
37943;SDS011;23767;42.024;23.086;2022-07-31T11:35:23;9.68;;;8.27;;
37943;SDS011;23767;42.024;23.086;2022-07-31T11:37:49;10.93;;;8.50;;
37943;SDS011;23767;42.024;23.086;2022-07-31T11:40:16;9.13;;;8.23;;
37943;SDS011;23767;42.024;23.086;2022-07-31T11:42:44;9.80;;;8.07;;
37943;SDS011;23767;42.024;23.086;2022-07-31T11:45:11;8.85;;;7.95;;
37943;SDS011;23767;42.024;23.086;2022-07-31T11:47:39;8.90;;;8.00;;
37943;SDS011;23767;42.024;23.086;2022-07-31T11:50:06;8.60;;;7.70;;
37943;SDS011;23767;42.024;23.086;2022-07-31T11:52:34;11.75;;;7.63;;
37943;SDS011;23767;42.024;23.086;2022-07-31T11:55:07;9.15;;;8.25;;
37943;SDS011;23767;42.024;23.086;2022-07-31T11:57:33;9.88;;;7.90;;
37943;SDS011;23767;42.024;23.086;2022-07-31T12:00:09;8.90;;;7.95;;
37943;SDS011;23767;42.024;23.086;2022-07-31T12:02:38;11.00;;;7.40;;
37943;SDS011;23767;42.024;23.086;2022-07-31T12:05:04;9.80;;;7.32;;
37943;SDS011;23767;42.024;23.086;2022-07-31T12:07:30;9.82;;;7.50;;
37943;SDS011;23767;42.024;23.086;2022-07-31T12:09:57;8.43;;;7.03;;
37943;SDS011;23767;42.024;23.086;2022-07-31T12:12:23;10.65;;;7.72;;
37943;SDS011;23767;42.024;23.086;2022-07-31T12:14:49;9.20;;;7.65;;
37943;SDS011;23767;42.024;23.086;2022-07-31T12:17:19;7.50;;;6.72;;
37943;SDS011;23767;42.024;23.086;2022-07-31T12:19:46;9.27;;;7.30;;
37943;SDS011;23767;42.024;23.086;2022-07-31T12:22:15;7.45;;;6.40;;
37943;SDS011;23767;42.024;23.086;2022-07-31T12:24:42;10.02;;;7.47;;
37943;SDS011;23767;42.024;23.086;2022-07-31T12:27:12;8.48;;;6.32;;
37943;SDS011;23767;42.024;23.086;2022-07-31T12:29:38;8.25;;;6.93;;
37943;SDS011;23767;42.024;23.086;2022-07-31T12:32:05;8.02;;;6.65;;
37943;SDS011;23767;42.024;23.086;2022-07-31T12:34:35;8.85;;;7.18;;
37943;SDS011;23767;42.024;23.086;2022-07-31T12:37:08;9.10;;;6.80;;
37943;SDS011;23767;42.024;23.086;2022-07-31T12:39:48;8.02;;;6.47;;
37943;SDS011;23767;42.024;23.086;2022-07-31T12:42:28;7.15;;;6.45;;
37943;SDS011;23767;42.024;23.086;2022-07-31T12:44:56;7.68;;;6.72;;
37943;SDS011;23767;42.024;23.086;2022-07-31T12:47:23;6.88;;;6.18;;
37943;SDS011;23767;42.024;23.086;2022-07-31T12:49:50;6.78;;;6.07;;
37943;SDS011;23767;42.024;23.086;2022-07-31T12:52:16;7.57;;;6.70;;
37943;SDS011;23767;42.024;23.086;2022-07-31T12:54:42;7.00;;;6.28;;
37943;SDS011;23767;42.024;23.086;2022-07-31T12:57:09;6.93;;;6.13;;
37943;SDS011;23767;42.024;23.086;2022-07-31T12:59:35;8.05;;;6.97;;
37943;SDS011;23767;42.024;23.086;2022-07-31T13:02:04;7.03;;;6.32;;
37943;SDS011;23767;42.024;23.086;2022-07-31T13:04:31;6.63;;;5.95;;
37943;SDS011;23767;42.024;23.086;2022-07-31T13:06:57;6.72;;;6.03;;
37943;SDS011;23767;42.024;23.086;2022-07-31T13:09:23;6.55;;;5.88;;
37943;SDS011;23767;42.024;23.086;2022-07-31T13:11:49;6.97;;;6.28;;
37943;SDS011;23767;42.024;23.086;2022-07-31T13:14:15;6.90;;;6.18;;
37943;SDS011;23767;42.024;23.086;2022-07-31T13:16:42;6.07;;;5.47;;
37943;SDS011;23767;42.024;23.086;2022-07-31T13:19:08;6.85;;;6.05;;
37943;SDS011;23767;42.024;23.086;2022-07-31T13:21:34;7.00;;;6.30;;
37943;SDS011;23767;42.024;23.086;2022-07-31T13:24:00;7.78;;;5.97;;
37943;SDS011;23767;42.024;23.086;2022-07-31T13:26:30;7.32;;;6.03;;
37943;SDS011;23767;42.024;23.086;2022-07-31T13:28:57;8.13;;;6.78;;
37943;SDS011;23767;42.024;23.086;2022-07-31T13:31:23;6.47;;;5.78;;
37943;SDS011;23767;42.024;23.086;2022-07-31T13:33:49;7.10;;;6.40;;
37943;SDS011;23767;42.024;23.086;2022-07-31T13:36:15;7.55;;;6.75;;
37943;SDS011;23767;42.024;23.086;2022-07-31T13:38:41;6.75;;;6.05;;
37943;SDS011;23767;42.024;23.086;2022-07-31T13:41:07;8.15;;;6.85;;
37943;SDS011;23767;42.024;23.086;2022-07-31T13:43:52;7.80;;;6.88;;
37943;SDS011;23767;42.024;23.086;2022-07-31T13:46:19;7.72;;;6.90;;
37943;SDS011;23767;42.024;23.086;2022-07-31T13:48:45;7.22;;;6.25;;
37943;SDS011;23767;42.024;23.086;2022-07-31T13:51:11;7.60;;;6.50;;
37943;SDS011;23767;42.024;23.086;2022-07-31T13:53:37;8.32;;;7.45;;
37943;SDS011;23767;42.024;23.086;2022-07-31T13:56:03;7.85;;;7.10;;
37943;SDS011;23767;42.024;23.086;2022-07-31T13:58:30;7.53;;;6.82;;
37943;SDS011;23767;42.024;23.086;2022-07-31T14:00:56;9.02;;;7.38;;
37943;SDS011;23767;42.024;23.086;2022-07-31T14:03:22;7.70;;;6.90;;
37943;SDS011;23767;42.024;23.086;2022-07-31T14:05:48;8.60;;;7.38;;
37943;SDS011;23767;42.024;23.086;2022-07-31T14:08:15;8.25;;;7.45;;
37943;SDS011;23767;42.024;23.086;2022-07-31T14:10:41;8.68;;;7.78;;
37943;SDS011;23767;42.024;23.086;2022-07-31T14:13:07;13.35;;;7.63;;
37943;SDS011;23767;42.024;23.086;2022-07-31T14:15:34;8.07;;;7.28;;
37943;SDS011;23767;42.024;23.086;2022-07-31T14:18:00;8.18;;;7.38;;
37943;SDS011;23767;42.024;23.086;2022-07-31T14:20:26;7.85;;;7.15;;
37943;SDS011;23767;42.024;23.086;2022-07-31T14:22:53;8.32;;;7.53;;
37943;SDS011;23767;42.024;23.086;2022-07-31T14:25:19;9.18;;;7.93;;
37943;SDS011;23767;42.024;23.086;2022-07-31T14:27:45;8.88;;;7.97;;
37943;SDS011;23767;42.024;23.086;2022-07-31T14:30:13;7.82;;;7.13;;
37943;SDS011;23767;42.024;23.086;2022-07-31T14:32:39;8.50;;;7.68;;